createdAt,value
2019-05-22T00:02:36.950Z,30.97
2019-05-22T00:05:15.363Z,31.37
2019-05-22T00:07:44.076Z,31.20
2019-05-22T00:10:14.391Z,29.93
2019-05-22T00:12:46.765Z,30.03
2019-05-22T00:15:16.006Z,36.60
2019-05-22T00:17:44.960Z,38.43
2019-05-22T00:20:13.575Z,34.33
2019-05-22T00:22:44.731Z,34.47
2019-05-22T00:25:14.825Z,31.03
2019-05-22T00:27:42.968Z,31.73
2019-05-22T00:30:13.274Z,32.43
2019-05-22T00:32:41.453Z,31.60
2019-05-22T00:35:10.779Z,33.27
2019-05-22T00:37:37.786Z,27.40
2019-05-22T00:40:07.685Z,30.67
2019-05-22T00:42:39.531Z,29.13
2019-05-22T00:45:09.828Z,32.10
2019-05-22T00:47:37.110Z,31.80
2019-05-22T00:50:07.923Z,33.63
2019-05-22T00:53:09.771Z,29.07
2019-05-22T00:55:41.122Z,27.13
2019-05-22T00:58:18.431Z,27.07
2019-05-22T01:00:53.256Z,25.70
2019-05-22T01:03:21.564Z,26.83
2019-05-22T01:05:50.611Z,26.33
2019-05-22T01:08:17.993Z,31.03
2019-05-22T01:10:49.624Z,27.30
2019-05-22T01:13:17.370Z,22.27
2019-05-22T01:15:46.201Z,21.23
2019-05-22T01:18:14.033Z,21.53
2019-05-22T01:20:41.834Z,22.70
2019-05-22T01:23:12.960Z,19.43
2019-05-22T01:25:42.185Z,18.90
2019-05-22T01:28:10.045Z,19.03
2019-05-22T01:30:50.167Z,19.97
2019-05-22T01:33:20.624Z,17.50
2019-05-22T01:36:05.721Z,15.67
2019-05-22T01:38:34.949Z,14.50
2019-05-22T01:41:07.490Z,15.80
2019-05-22T01:43:34.904Z,16.27
2019-05-22T01:46:03.293Z,14.00
2019-05-22T01:48:35.383Z,15.57
2019-05-22T01:51:05.125Z,15.00
2019-05-22T01:53:36.968Z,15.73
2019-05-22T01:56:07.886Z,12.57
2019-05-22T01:58:36.605Z,15.20
2019-05-22T02:01:08.948Z,17.63
2019-05-22T02:03:37.985Z,17.30
2019-05-22T02:06:06.769Z,17.07
2019-05-22T02:08:40.852Z,20.90
2019-05-22T02:11:11.584Z,24.87
2019-05-22T02:13:43.341Z,20.20
2019-05-22T02:16:10.761Z,18.10
2019-05-22T02:18:40.095Z,19.73
2019-05-22T02:21:08.637Z,23.17
2019-05-22T02:23:37.358Z,21.60
2019-05-22T02:26:05.316Z,22.50
2019-05-22T02:28:32.715Z,22.30
2019-05-22T02:31:00.605Z,24.37
2019-05-22T02:33:29.207Z,29.17
2019-05-22T02:35:56.197Z,28.63
2019-05-22T02:38:25.501Z,27.10
2019-05-22T02:40:54.437Z,29.53
2019-05-22T02:43:23.928Z,30.23
2019-05-22T02:45:51.438Z,28.90
2019-05-22T02:48:20.162Z,29.63
2019-05-22T02:50:47.793Z,28.63
2019-05-22T02:53:15.403Z,34.33
2019-05-22T02:55:42.719Z,30.87
2019-05-22T02:58:12.376Z,32.77
2019-05-22T03:00:55.432Z,36.03
2019-05-22T03:03:22.244Z,31.17
2019-05-22T03:05:49.468Z,32.37
2019-05-22T03:08:17.494Z,35.87
2019-05-22T03:10:45.396Z,34.47
2019-05-22T03:13:12.589Z,37.50
2019-05-22T03:15:40.199Z,39.57
2019-05-22T03:18:07.912Z,32.97
2019-05-22T03:20:36.507Z,35.80
2019-05-22T03:23:11.546Z,32.57
2019-05-22T03:25:40.580Z,28.50
2019-05-22T03:28:09.094Z,30.57
2019-05-22T03:30:39.926Z,33.23
2019-05-22T03:33:07.286Z,28.60
2019-05-22T03:35:45.226Z,33.30
2019-05-22T03:38:12.116Z,31.63
2019-05-22T03:40:40.009Z,31.13
2019-05-22T03:43:15.964Z,31.73
2019-05-22T03:45:42.748Z,31.03
2019-05-22T03:48:10.276Z,28.53
2019-05-22T03:50:39.904Z,30.27
2019-05-22T03:53:14.789Z,31.77
2019-05-22T03:55:41.894Z,32.03
2019-05-22T03:58:09.134Z,30.17
2019-05-22T04:00:36.439Z,30.20
2019-05-22T04:03:04.358Z,30.20
2019-05-22T04:05:31.276Z,27.47
2019-05-22T04:08:02.181Z,30.77
2019-05-22T04:10:40.799Z,27.33
2019-05-22T04:13:06.321Z,30.73
2019-05-22T04:15:33.849Z,30.60
2019-05-22T04:18:12.108Z,28.63
2019-05-22T04:20:39.720Z,30.73
2019-05-22T04:23:08.569Z,31.40
2019-05-22T04:25:35.800Z,28.70
2019-05-22T04:28:03.535Z,29.97
2019-05-22T04:30:31.650Z,27.97
2019-05-22T04:32:59.872Z,33.17
2019-05-22T04:35:26.948Z,27.23
2019-05-22T04:37:53.926Z,26.63
2019-05-22T04:40:51.074Z,33.17
2019-05-22T04:43:20.877Z,29.17
2019-05-22T04:45:48.644Z,28.13
2019-05-22T04:48:16.431Z,25.27
2019-05-22T04:50:43.880Z,26.57
2019-05-22T04:53:10.771Z,22.80
2019-05-22T04:55:37.482Z,27.13
2019-05-22T04:58:06.531Z,27.60
2019-05-22T05:00:34.955Z,29.13
2019-05-22T05:03:04.758Z,27.17
2019-05-22T05:05:36.455Z,25.93
2019-05-22T05:08:03.474Z,26.10
2019-05-22T05:10:30.618Z,26.83
2019-05-22T05:12:57.939Z,25.77
2019-05-22T05:15:25.102Z,27.13
2019-05-22T05:17:52.021Z,25.23
2019-05-22T05:20:22.598Z,30.43
2019-05-22T05:22:48.325Z,30.17
2019-05-22T05:25:17.185Z,23.13
2019-05-22T05:27:44.568Z,24.70
2019-05-22T05:30:13.217Z,25.17
2019-05-22T05:32:41.120Z,24.03
2019-05-22T05:35:08.612Z,24.80
2019-05-22T05:37:36.333Z,18.53
2019-05-22T05:40:24.072Z,18.47
2019-05-22T05:42:52.009Z,19.33
2019-05-22T05:45:18.948Z,18.80
2019-05-22T05:47:46.213Z,20.30
2019-05-22T05:50:14.337Z,18.57
2019-05-22T05:52:42.154Z,21.60
2019-05-22T05:55:11.137Z,17.67
2019-05-22T05:58:27.040Z,16.57
2019-05-22T06:01:06.313Z,16.83
2019-05-22T06:03:37.028Z,21.00
2019-05-22T06:06:51.274Z,25.03
2019-05-22T06:09:19.326Z,16.63
2019-05-22T06:11:48.356Z,16.63
2019-05-22T06:14:19.901Z,14.57
2019-05-22T06:17:40.130Z,15.53
2019-05-22T06:20:11.034Z,16.17
2019-05-22T06:22:39.856Z,14.93
2019-05-22T06:25:07.749Z,13.93
2019-05-22T06:27:52.133Z,14.00
2019-05-22T06:30:40.599Z,15.10
2019-05-22T06:33:29.097Z,15.67
2019-05-22T06:35:56.374Z,14.87
2019-05-22T06:39:00.314Z,14.67
2019-05-22T06:41:32.181Z,13.67
2019-05-22T06:44:26.657Z,11.77
2019-05-22T06:46:53.970Z,12.67
2019-05-22T06:49:41.390Z,13.20
2019-05-22T06:52:08.673Z,18.67
2019-05-22T06:54:36.252Z,10.60
2019-05-22T06:57:06.792Z,9.93
2019-05-22T06:59:33.785Z,9.53
2019-05-22T07:02:02.143Z,10.20
2019-05-22T07:04:29.171Z,13.67
2019-05-22T07:06:56.672Z,7.87
2019-05-22T07:09:24.903Z,8.17
2019-05-22T07:11:52.211Z,8.37
2019-05-22T07:14:19.458Z,8.40
2019-05-22T07:16:48.418Z,10.23
2019-05-22T07:19:16.275Z,9.40
2019-05-22T07:21:43.393Z,8.20
2019-05-22T07:24:11.000Z,9.33
2019-05-22T07:26:38.729Z,12.00
2019-05-22T07:29:05.753Z,12.23
2019-05-22T07:31:33.072Z,8.80
2019-05-22T07:34:00.413Z,10.40
2019-05-22T07:36:29.924Z,11.43
2019-05-22T07:38:57.127Z,8.10
2019-05-22T07:41:24.201Z,8.87
2019-05-22T07:43:51.754Z,7.80
2019-05-22T07:46:19.060Z,10.00
2019-05-22T07:48:46.282Z,8.60
2019-05-22T07:51:14.982Z,7.80
2019-05-22T07:53:42.272Z,6.90
2019-05-22T07:56:10.997Z,9.93
2019-05-22T07:58:38.228Z,9.67
2019-05-22T08:01:05.733Z,9.70
2019-05-22T08:03:33.426Z,8.83
2019-05-22T08:06:00.733Z,7.90
2019-05-22T08:08:31.113Z,7.80
2019-05-22T08:10:58.231Z,11.37
2019-05-22T08:13:26.635Z,8.77
2019-05-22T08:15:54.027Z,7.67
2019-05-22T08:18:21.112Z,10.13
2019-05-22T08:20:47.967Z,10.63
2019-05-22T08:23:14.992Z,10.87
2019-05-22T08:25:41.678Z,8.73
2019-05-22T08:28:09.576Z,9.40
2019-05-22T08:30:36.592Z,9.40
2019-05-22T08:33:08.990Z,10.67
2019-05-22T08:35:36.197Z,9.67
2019-05-22T08:38:04.351Z,10.57
2019-05-22T08:40:32.055Z,10.17
2019-05-22T08:42:59.529Z,11.97
2019-05-22T08:45:28.176Z,11.67
2019-05-22T08:47:56.171Z,13.67
2019-05-22T08:50:23.976Z,13.07
2019-05-22T08:52:51.116Z,14.03
2019-05-22T08:55:19.382Z,18.23
2019-05-22T08:57:47.004Z,16.60
2019-05-22T09:00:18.706Z,17.83
2019-05-22T09:02:46.229Z,18.77
2019-05-22T09:05:13.353Z,21.23
2019-05-22T09:07:41.503Z,17.10
2019-05-22T09:10:08.601Z,23.80
2019-05-22T09:12:35.859Z,17.57
2019-05-22T09:15:03.049Z,17.23
2019-05-22T09:17:30.085Z,17.93
2019-05-22T09:19:57.829Z,19.83
2019-05-22T09:22:40.091Z,19.17
2019-05-22T09:24:56.168Z,23.13
2019-05-22T09:27:23.298Z,18.30
2019-05-22T09:29:50.020Z,20.43
2019-05-22T09:32:16.713Z,16.57
2019-05-22T09:34:43.524Z,15.80
2019-05-22T09:37:11.233Z,19.23
2019-05-22T09:39:38.056Z,20.97
2019-05-22T09:42:04.880Z,17.20
2019-05-22T09:44:32.225Z,21.60
2019-05-22T09:46:59.029Z,21.77
2019-05-22T09:49:26.041Z,22.63
2019-05-22T09:51:54.289Z,23.83
2019-05-22T09:54:21.383Z,23.47
2019-05-22T09:56:48.618Z,24.30
2019-05-22T09:59:15.628Z,24.07
2019-05-22T10:01:42.453Z,21.20
2019-05-22T10:04:09.170Z,20.13
2019-05-22T10:06:36.211Z,24.07
2019-05-22T10:09:05.740Z,25.73
2019-05-22T10:11:32.884Z,21.80
2019-05-22T10:14:00.118Z,27.47
2019-05-22T10:16:27.187Z,25.10
2019-05-22T10:18:54.719Z,26.47
2019-05-22T10:21:21.659Z,21.80
2019-05-22T10:23:48.551Z,21.00
2019-05-22T10:26:15.231Z,21.80
2019-05-22T10:28:41.968Z,23.40
2019-05-22T10:31:09.836Z,20.83
2019-05-22T10:33:38.418Z,18.87
2019-05-22T10:36:05.883Z,22.57
2019-05-22T10:38:32.830Z,21.27
2019-05-22T10:40:59.956Z,22.47
2019-05-22T10:43:27.335Z,21.53
2019-05-22T10:45:54.902Z,23.03
2019-05-22T10:48:21.700Z,19.07
2019-05-22T10:50:48.708Z,25.07
2019-05-22T10:53:32.431Z,21.80
2019-05-22T10:55:45.149Z,24.87
2019-05-22T10:58:11.977Z,21.83
2019-05-22T11:00:39.374Z,22.70
2019-05-22T11:03:06.813Z,23.47
2019-05-22T11:05:35.231Z,18.27
2019-05-22T11:08:02.347Z,22.63
2019-05-22T11:10:29.761Z,25.77
2019-05-22T11:12:57.017Z,23.53
2019-05-22T11:15:24.524Z,25.17
2019-05-22T11:17:51.749Z,22.17
2019-05-22T11:20:20.214Z,28.07
2019-05-22T11:22:48.408Z,24.33
2019-05-22T11:25:16.840Z,25.40
2019-05-22T11:27:44.668Z,25.30
2019-05-22T11:30:13.202Z,23.93
2019-05-22T11:32:40.143Z,23.30
2019-05-22T11:35:08.056Z,27.57
2019-05-22T11:37:35.409Z,27.33
2019-05-22T11:40:03.540Z,25.77
2019-05-22T11:42:30.261Z,26.30
2019-05-22T11:44:57.201Z,26.33
2019-05-22T11:47:24.183Z,24.93
2019-05-22T11:49:50.976Z,29.90
2019-05-22T11:52:19.022Z,24.30
2019-05-22T11:54:46.388Z,27.90
2019-05-22T11:57:13.844Z,24.40
2019-05-22T11:59:40.725Z,27.63
2019-05-22T12:02:09.388Z,25.07
2019-05-22T12:04:47.506Z,25.63
2019-05-22T12:07:06.519Z,26.70
2019-05-22T12:09:33.820Z,23.37
2019-05-22T12:12:00.930Z,25.93
2019-05-22T12:14:28.152Z,25.60
2019-05-22T12:16:55.615Z,22.17
2019-05-22T12:19:22.475Z,25.30
2019-05-22T12:21:49.580Z,21.70
2019-05-22T12:24:27.214Z,27.70
2019-05-22T12:26:46.013Z,22.27
2019-05-22T12:29:16.841Z,21.93
2019-05-22T12:31:42.300Z,19.63
2019-05-22T12:34:09.415Z,20.47
2019-05-22T12:36:36.253Z,22.13
2019-05-22T12:39:06.037Z,18.93
2019-05-22T12:41:33.558Z,22.37
2019-05-22T12:44:00.784Z,22.97
2019-05-22T12:46:28.398Z,23.43
2019-05-22T12:48:56.016Z,25.90
2019-05-22T12:51:23.938Z,18.13
2019-05-22T12:53:51.546Z,21.20
2019-05-22T12:56:18.882Z,21.23
2019-05-22T12:58:46.287Z,17.90
2019-05-22T13:01:14.011Z,20.47
2019-05-22T13:03:41.307Z,22.00
2019-05-22T13:06:08.095Z,21.50
2019-05-22T13:08:35.977Z,23.17
2019-05-22T13:11:05.284Z,16.50
2019-05-22T13:13:31.752Z,17.30
2019-05-22T13:15:59.577Z,18.13
2019-05-22T13:18:28.352Z,16.93
2019-05-22T13:20:56.620Z,17.30
2019-05-22T13:23:28.225Z,19.07
2019-05-22T13:25:55.684Z,15.73
2019-05-22T13:28:24.117Z,17.33
2019-05-22T13:30:54.179Z,16.03
2019-05-22T13:33:25.393Z,15.80
2019-05-22T13:35:54.169Z,15.83
2019-05-22T13:38:21.166Z,16.97
2019-05-22T13:40:49.467Z,19.27
2019-05-22T13:43:17.246Z,16.97
2019-05-22T13:45:44.504Z,18.17
2019-05-22T13:48:11.642Z,16.07
2019-05-22T13:50:38.652Z,16.23
2019-05-22T13:53:07.697Z,16.43
2019-05-22T13:55:35.156Z,19.23
2019-05-22T13:58:02.677Z,17.83
2019-05-22T14:00:30.189Z,15.30
2019-05-22T14:02:57.445Z,17.67
2019-05-22T14:05:25.386Z,16.93
2019-05-22T14:07:52.113Z,15.33
2019-05-22T14:10:22.009Z,14.57
2019-05-22T14:12:48.921Z,15.70
2019-05-22T14:15:16.116Z,18.40
2019-05-22T14:17:43.046Z,19.87
2019-05-22T14:20:11.565Z,19.67
2019-05-22T14:22:38.600Z,19.50
2019-05-22T14:25:06.131Z,14.73
2019-05-22T14:27:33.043Z,17.40
2019-05-22T14:30:00.292Z,18.00
2019-05-22T14:32:29.668Z,16.17
2019-05-22T14:34:56.293Z,18.13
2019-05-22T14:37:23.488Z,14.80
2019-05-22T14:39:50.532Z,11.10
2019-05-22T14:42:19.076Z,17.10
2019-05-22T14:44:46.450Z,14.33
2019-05-22T14:47:16.304Z,16.73
2019-05-22T14:49:41.868Z,16.03
2019-05-22T14:52:09.133Z,14.10
2019-05-22T14:54:36.062Z,15.27
2019-05-22T14:57:03.249Z,13.73
2019-05-22T14:59:30.848Z,15.37
2019-05-22T15:01:57.668Z,14.47
2019-05-22T15:04:25.444Z,14.87
2019-05-22T15:06:52.553Z,14.77
2019-05-22T15:09:19.482Z,17.33
2019-05-22T15:11:46.398Z,12.07
2019-05-22T15:14:13.815Z,16.63
2019-05-22T15:16:40.709Z,13.40
2019-05-22T15:19:08.413Z,15.00
2019-05-22T15:21:35.686Z,10.90
2019-05-22T15:24:04.004Z,13.80
2019-05-22T15:26:31.313Z,13.77
2019-05-22T15:28:58.010Z,12.50
2019-05-22T15:31:25.176Z,11.80
2019-05-22T15:33:52.463Z,11.20
2019-05-22T15:36:22.036Z,11.60
2019-05-22T15:38:49.822Z,11.43
2019-05-22T15:41:16.948Z,14.00
2019-05-22T15:43:49.973Z,9.23
2019-05-22T15:46:15.085Z,9.27
2019-05-22T15:48:44.477Z,9.60
2019-05-22T15:51:11.761Z,10.20
2019-05-22T15:53:39.089Z,10.17
2019-05-22T15:56:08.058Z,10.80
2019-05-22T15:58:36.958Z,9.80
2019-05-22T16:01:08.175Z,10.27
2019-05-22T16:03:35.148Z,8.70
2019-05-22T16:06:02.754Z,8.83
2019-05-22T16:08:30.186Z,12.03
2019-05-22T16:11:00.313Z,9.77
2019-05-22T16:13:31.732Z,11.10
2019-05-22T16:16:01.358Z,10.30
2019-05-22T16:18:31.063Z,10.37
2019-05-22T16:21:00.157Z,9.27
2019-05-22T16:23:29.797Z,8.67
2019-05-22T16:25:56.596Z,7.53
2019-05-22T16:28:24.191Z,7.07
2019-05-22T16:30:51.973Z,10.33
2019-05-22T16:33:20.966Z,9.17
2019-05-22T16:35:47.901Z,8.63
2019-05-22T16:38:15.214Z,9.47
2019-05-22T16:40:42.704Z,9.40
2019-05-22T16:43:09.750Z,10.80
2019-05-22T16:45:37.144Z,9.60
2019-05-22T16:48:05.461Z,7.00
2019-05-22T16:50:32.584Z,10.23
2019-05-22T16:53:05.004Z,10.40
2019-05-22T16:55:32.373Z,7.83
2019-05-22T16:57:59.716Z,7.60
2019-05-22T17:00:26.918Z,10.60
2019-05-22T17:02:54.088Z,8.43
2019-05-22T17:05:21.724Z,7.50
2019-05-22T17:07:49.486Z,7.57
2019-05-22T17:10:17.724Z,6.60
2019-05-22T17:12:45.653Z,7.83
2019-05-22T17:15:14.445Z,9.13
2019-05-22T17:17:42.174Z,7.87
2019-05-22T17:20:11.628Z,7.63
2019-05-22T17:22:38.529Z,8.80
2019-05-22T17:25:06.749Z,7.27
2019-05-22T17:27:34.829Z,7.67
2019-05-22T17:30:03.098Z,6.93
2019-05-22T17:32:30.665Z,6.10
2019-05-22T17:34:57.468Z,6.90
2019-05-22T17:37:26.229Z,7.43
2019-05-22T17:39:53.161Z,11.17
2019-05-22T17:42:22.658Z,9.27
2019-05-22T17:44:50.759Z,7.03
2019-05-22T17:47:19.302Z,12.03
2019-05-22T17:49:48.144Z,8.03
2019-05-22T17:52:18.086Z,6.80
2019-05-22T17:54:46.593Z,7.77
2019-05-22T17:57:15.540Z,6.47
2019-05-22T17:59:42.965Z,6.20
2019-05-22T18:02:12.863Z,6.43
2019-05-22T18:04:40.586Z,6.20
2019-05-22T18:07:08.091Z,9.93
2019-05-22T18:09:35.521Z,9.53
2019-05-22T18:12:04.553Z,5.43
2019-05-22T18:14:31.893Z,5.83
2019-05-22T18:16:58.700Z,5.23
2019-05-22T18:19:27.012Z,7.27
2019-05-22T18:21:53.745Z,9.17
2019-05-22T18:24:21.021Z,9.77
2019-05-22T18:26:47.737Z,5.50
2019-05-22T18:29:14.657Z,5.83
2019-05-22T18:31:42.128Z,8.50
2019-05-22T18:34:08.929Z,7.23
2019-05-22T18:36:35.961Z,5.93
2019-05-22T18:39:04.743Z,6.00
2019-05-22T18:41:31.656Z,5.47
2019-05-22T18:43:59.459Z,6.33
2019-05-22T18:46:26.896Z,7.17
2019-05-22T18:48:54.163Z,6.43
2019-05-22T18:51:21.580Z,6.37
2019-05-22T18:53:48.953Z,6.53
2019-05-22T18:56:16.389Z,9.27
2019-05-22T18:58:43.495Z,11.63
2019-05-22T19:01:11.275Z,11.33
2019-05-22T19:03:38.541Z,10.50
2019-05-22T19:06:05.669Z,6.23
2019-05-22T19:08:33.262Z,8.20
2019-05-22T19:11:00.168Z,6.57
2019-05-22T19:13:27.185Z,9.07
2019-05-22T19:15:54.200Z,7.40
2019-05-22T19:18:21.318Z,7.97
2019-05-22T19:20:48.223Z,6.63
2019-05-22T19:23:15.579Z,5.43
2019-05-22T19:25:42.399Z,10.00
2019-05-22T19:28:09.114Z,7.20
2019-05-22T19:30:36.127Z,7.37
2019-05-22T19:33:03.200Z,8.43
2019-05-22T19:35:30.296Z,6.03
2019-05-22T19:37:57.597Z,5.30
2019-05-22T19:40:24.899Z,5.40
2019-05-22T19:42:51.742Z,7.73
2019-05-22T19:45:20.089Z,6.10
2019-05-22T19:47:53.704Z,7.90
2019-05-22T19:50:23.592Z,8.37
2019-05-22T19:52:51.892Z,7.37
2019-05-22T19:55:19.128Z,7.23
2019-05-22T19:57:47.391Z,5.87
2019-05-22T20:00:14.953Z,6.13
2019-05-22T20:02:42.889Z,9.30
2019-05-22T20:05:10.619Z,8.53
2019-05-22T20:07:38.518Z,9.27
2019-05-22T20:10:06.273Z,7.63
2019-05-22T20:12:34.394Z,10.53
2019-05-22T20:15:01.593Z,7.03
2019-05-22T20:17:28.936Z,10.07
2019-05-22T20:19:55.656Z,6.07
2019-05-22T20:22:23.677Z,6.87
2019-05-22T20:24:50.809Z,7.00
2019-05-22T20:27:18.115Z,6.67
2019-05-22T20:29:45.205Z,8.43
2019-05-22T20:32:13.552Z,5.97
2019-05-22T20:34:40.679Z,5.97
2019-05-22T20:37:07.501Z,8.07
2019-05-22T20:39:35.435Z,7.07
2019-05-22T20:42:03.821Z,7.43
2019-05-22T20:44:31.040Z,7.50
2019-05-22T20:46:57.945Z,6.77
2019-05-22T20:49:25.869Z,7.43
2019-05-22T20:51:52.960Z,7.87
2019-05-22T20:54:20.461Z,5.93
2019-05-22T20:56:49.531Z,8.70
2019-05-22T20:59:16.254Z,6.00
2019-05-22T21:01:46.052Z,8.57
2019-05-22T21:04:13.277Z,7.30
2019-05-22T21:06:46.839Z,6.73
2019-05-22T21:09:14.595Z,8.27
2019-05-22T21:11:42.184Z,11.60
2019-05-22T21:14:10.211Z,6.30
2019-05-22T21:16:39.225Z,8.70
2019-05-22T21:19:06.507Z,9.83
2019-05-22T21:21:33.439Z,5.63
2019-05-22T21:24:09.948Z,7.37
2019-05-22T21:26:31.551Z,5.87
2019-05-22T21:28:58.979Z,5.90
2019-05-22T21:31:26.230Z,5.77
2019-05-22T21:33:54.604Z,8.53
2019-05-22T21:36:22.323Z,10.83
2019-05-22T21:38:49.326Z,6.23
2019-05-22T21:41:20.291Z,7.67
2019-05-22T21:43:47.619Z,6.27
2019-05-22T21:46:14.857Z,9.03
2019-05-22T21:48:42.188Z,7.67
2019-05-22T21:51:09.300Z,8.60
2019-05-22T21:53:36.493Z,6.47
2019-05-22T21:56:06.390Z,6.10
2019-05-22T21:58:33.821Z,7.13
2019-05-22T22:01:28.132Z,5.87
2019-05-22T22:04:00.482Z,9.17
2019-05-22T22:06:27.942Z,7.90
2019-05-22T22:08:55.280Z,8.53
2019-05-22T22:11:25.268Z,10.07
2019-05-22T22:13:54.296Z,6.37
2019-05-22T22:16:22.041Z,6.00
2019-05-22T22:18:49.583Z,6.50
2019-05-22T22:21:16.873Z,9.87
2019-05-22T22:23:44.745Z,6.67
2019-05-22T22:26:24.833Z,7.40
2019-05-22T22:28:41.456Z,9.60
2019-05-22T22:31:10.688Z,9.07
2019-05-22T22:33:38.876Z,6.73
2019-05-22T22:36:07.284Z,11.17
2019-05-22T22:38:35.645Z,7.27
2019-05-22T22:41:06.242Z,7.57
2019-05-22T22:43:36.984Z,10.30
2019-05-22T22:46:10.085Z,8.60
2019-05-22T22:48:39.395Z,5.90
2019-05-22T22:51:08.901Z,7.83
2019-05-22T22:53:35.596Z,6.80
2019-05-22T22:56:05.349Z,7.80
2019-05-22T22:58:33.188Z,7.27
2019-05-22T23:01:03.348Z,6.80
2019-05-22T23:03:31.543Z,7.87
2019-05-22T23:05:58.671Z,7.10
2019-05-22T23:11:06.343Z,6.13
2019-05-22T23:13:34.857Z,6.00
2019-05-22T23:16:02.579Z,5.90
2019-05-22T23:19:03.734Z,7.73
2019-05-22T23:21:32.015Z,6.93
2019-05-22T23:23:58.089Z,7.30
2019-05-22T23:26:25.876Z,7.10
2019-05-22T23:28:52.989Z,8.07
2019-05-22T23:31:20.701Z,7.23
2019-05-22T23:33:47.732Z,8.77
2019-05-22T23:36:15.754Z,8.23
2019-05-22T23:38:44.574Z,8.33
2019-05-22T23:41:12.161Z,8.10
2019-05-22T23:43:41.181Z,6.47
2019-05-22T23:46:09.501Z,8.10
2019-05-22T23:48:38.308Z,6.20
2019-05-22T23:51:05.326Z,6.47
2019-05-22T23:53:34.218Z,6.63
2019-05-22T23:56:02.962Z,10.87
2019-05-22T23:58:30.083Z,9.23
